createdAt,value
2023-01-30T00:01:16.441Z,1.90
2023-01-30T00:04:01.530Z,1.93
2023-01-30T00:06:46.736Z,1.97
2023-01-30T00:09:31.720Z,2.00
2023-01-30T00:12:16.861Z,1.98
2023-01-30T00:15:02.398Z,1.99
2023-01-30T00:17:47.650Z,1.99
2023-01-30T00:20:33.679Z,2.03
2023-01-30T00:23:18.963Z,2.09
2023-01-30T00:26:27.009Z,2.16
2023-01-30T00:29:13.444Z,2.05
2023-01-30T00:32:00.218Z,2.09
2023-01-30T00:34:46.986Z,2.10
2023-01-30T00:37:33.654Z,2.12
2023-01-30T00:40:20.716Z,2.04
2023-01-30T00:43:26.113Z,2.13
2023-01-30T00:46:46.071Z,2.12
2023-01-30T00:49:33.548Z,2.06
2023-01-30T00:52:20.156Z,2.01
2023-01-30T00:55:07.651Z,1.99
2023-01-30T00:57:53.978Z,1.92
2023-01-30T01:00:40.724Z,1.87
2023-01-30T01:03:36.166Z,1.94
2023-01-30T01:07:31.421Z,1.89
2023-01-30T01:10:18.301Z,1.83
2023-01-30T01:13:07.021Z,1.84
2023-01-30T01:16:06.294Z,1.91
2023-01-30T01:18:53.905Z,1.87
2023-01-30T01:21:51.317Z,1.94
2023-01-30T01:24:37.953Z,1.86
2023-01-30T01:27:24.860Z,1.90
2023-01-30T01:30:12.480Z,1.88
2023-01-30T01:32:58.956Z,1.91
2023-01-30T01:35:47.690Z,1.95
2023-01-30T01:38:34.407Z,2.01
2023-01-30T01:41:20.969Z,2.05
2023-01-30T01:46:08.521Z,2.10
2023-01-30T01:50:27.053Z,2.07
2023-01-30T01:53:47.392Z,2.00
2023-01-30T01:57:51.425Z,1.94
2023-01-30T02:02:10.443Z,2.10
2023-01-30T02:05:52.454Z,2.14
2023-01-30T02:09:00.707Z,2.13
2023-01-30T02:13:00.609Z,2.08
2023-01-30T02:16:59.979Z,2.03
2023-01-30T02:20:02.025Z,1.99
2023-01-30T02:23:06.834Z,2.03
2023-01-30T02:26:25.623Z,2.09
2023-01-30T02:29:41.314Z,2.08
2023-01-30T02:34:23.289Z,2.09
2023-01-30T02:38:03.217Z,2.00
2023-01-30T02:41:41.930Z,1.99
2023-01-30T02:45:01.674Z,1.95
2023-01-30T02:50:12.882Z,1.86
2023-01-30T02:54:19.381Z,1.79
2023-01-30T02:58:12.904Z,1.78
2023-01-30T03:02:45.374Z,1.77
2023-01-30T03:06:04.504Z,1.80
2023-01-30T03:10:05.745Z,1.82
2023-01-30T03:14:23.697Z,1.77
2023-01-30T03:18:20.403Z,1.73
2023-01-30T03:22:17.410Z,1.76
2023-01-30T03:26:36.049Z,1.79
2023-01-30T03:30:34.091Z,1.74
2023-01-30T03:34:31.273Z,1.70
2023-01-30T03:37:18.280Z,1.67
2023-01-30T03:40:05.509Z,1.70
2023-01-30T03:42:52.252Z,1.67
2023-01-30T03:45:38.689Z,1.69
2023-01-30T03:48:25.397Z,1.67
2023-01-30T03:51:15.556Z,1.68
2023-01-30T03:54:02.401Z,1.58
2023-01-30T03:56:49.140Z,1.50
2023-01-30T03:59:37.618Z,1.52
2023-01-30T04:02:26.248Z,1.50
2023-01-30T04:05:13.055Z,1.33
2023-01-30T04:07:59.991Z,1.28
2023-01-30T04:10:48.035Z,1.27
2023-01-30T04:13:34.743Z,1.22
2023-01-30T04:16:24.157Z,1.23
2023-01-30T04:19:10.826Z,1.29
2023-01-30T04:21:57.475Z,1.33
2023-01-30T04:24:44.223Z,1.38
2023-01-30T04:27:30.888Z,1.38
2023-01-30T04:30:17.869Z,1.37
2023-01-30T04:33:04.411Z,1.34
2023-01-30T04:35:56.062Z,1.34
2023-01-30T04:38:43.364Z,1.26
2023-01-30T04:41:30.004Z,1.31
2023-01-30T04:44:18.844Z,1.30
2023-01-30T04:47:05.577Z,1.18
2023-01-30T04:49:52.017Z,1.20
2023-01-30T04:52:39.909Z,1.22
2023-01-30T04:56:09.521Z,1.28
2023-01-30T05:00:05.868Z,1.34
2023-01-30T05:04:03.512Z,1.30
2023-01-30T05:08:01.705Z,1.29
2023-01-30T05:11:57.923Z,1.31
2023-01-30T05:15:54.547Z,1.31
2023-01-30T05:18:41.587Z,1.26
2023-01-30T05:21:29.970Z,1.34
2023-01-30T05:24:34.215Z,1.36
2023-01-30T05:27:21.243Z,1.47
2023-01-30T05:32:40.601Z,1.44
2023-01-30T05:36:38.217Z,1.42
2023-01-30T05:40:38.359Z,1.42
2023-01-30T05:44:13.149Z,1.35
2023-01-30T05:48:15.780Z,1.29
2023-01-30T05:52:13.933Z,1.27
2023-01-30T05:56:11.874Z,1.29
2023-01-30T06:10:38.227Z,1.51
2023-01-30T06:13:47.017Z,1.50
2023-01-30T06:17:43.789Z,1.38
2023-01-30T06:21:09.520Z,1.36
2023-01-30T06:24:28.052Z,1.26
2023-01-30T06:28:26.253Z,1.30
2023-01-30T06:31:13.454Z,1.31
2023-01-30T06:34:00.812Z,1.36
2023-01-30T06:36:47.584Z,1.40
2023-01-30T06:55:52.063Z,1.64
2023-01-30T07:09:38.525Z,1.76
2023-01-30T07:12:32.937Z,1.72
2023-01-30T07:16:49.453Z,1.64
2023-01-30T07:19:34.523Z,1.58
2023-01-30T07:22:23.303Z,1.53
2023-01-30T07:25:08.982Z,1.49
2023-01-30T07:27:59.181Z,1.52
2023-01-30T07:30:27.736Z,1.59
2023-01-30T07:33:13.358Z,1.54
2023-01-30T07:35:58.612Z,1.54
2023-01-30T07:40:39.415Z,1.44
2023-01-30T07:43:25.801Z,1.29
2023-01-30T07:46:14.547Z,1.31
2023-01-30T07:49:02.320Z,1.33
2023-01-30T07:51:49.027Z,1.25
2023-01-30T07:54:35.646Z,1.29
2023-01-30T07:57:33.254Z,1.22
2023-01-30T08:01:28.279Z,1.11
2023-01-30T08:05:31.370Z,1.07
2023-01-30T08:09:26.541Z,0.95
2023-01-30T08:12:13.773Z,0.85
2023-01-30T08:15:01.029Z,0.83
2023-01-30T08:17:56.970Z,0.81
2023-01-30T08:20:43.657Z,0.81
2023-01-30T08:24:38.744Z,0.84
2023-01-30T08:34:43.299Z,0.61
2023-01-30T08:38:40.619Z,0.60
2023-01-30T08:41:28.474Z,0.57
2023-01-30T08:44:15.415Z,0.61
2023-01-30T08:47:02.197Z,0.58
2023-01-30T08:49:59.671Z,0.58
2023-01-30T08:52:57.798Z,0.62
2023-01-30T08:55:45.438Z,0.48
2023-01-30T08:58:43.968Z,0.44
2023-01-30T09:01:30.530Z,0.46
2023-01-30T09:04:19.943Z,0.56
2023-01-30T09:07:22.582Z,0.59
2023-01-30T09:10:09.901Z,0.51
2023-01-30T09:12:56.769Z,0.54
2023-01-30T09:15:44.312Z,0.60
2023-01-30T09:18:31.336Z,0.61
2023-01-30T09:32:16.340Z,0.75
2023-01-30T09:35:19.200Z,0.66
2023-01-30T09:38:05.924Z,0.53
2023-01-30T09:41:18.491Z,0.59
2023-01-30T09:44:31.107Z,0.58
2023-01-30T09:47:42.612Z,0.59
2023-01-30T09:50:57.985Z,0.55
2023-01-30T09:54:03.651Z,0.62
2023-01-30T09:56:58.485Z,0.75
2023-01-30T09:59:54.896Z,0.85
2023-01-30T10:02:52.319Z,0.85
2023-01-30T10:05:48.483Z,0.79
2023-01-30T10:08:58.117Z,0.79
2023-01-30T10:12:13.998Z,0.84
2023-01-30T10:15:34.951Z,0.90
2023-01-30T10:18:47.916Z,0.92
2023-01-30T10:21:56.390Z,1.02
2023-01-30T10:25:15.449Z,1.00
2023-01-30T10:28:26.968Z,1.08
2023-01-30T10:31:28.310Z,1.05
2023-01-30T10:35:34.374Z,0.94
2023-01-30T10:40:01.984Z,0.94
2023-01-30T10:43:51.130Z,0.90
2023-01-30T10:48:26.548Z,0.92
2023-01-30T10:51:46.264Z,0.94
2023-01-30T10:56:09.342Z,1.00
2023-01-30T10:59:20.342Z,1.00
2023-01-30T11:02:31.018Z,0.99
2023-01-30T11:05:38.808Z,1.12
2023-01-30T11:08:27.174Z,1.15
2023-01-30T11:12:00.305Z,1.15
2023-01-30T11:15:58.514Z,1.08
2023-01-30T11:19:18.931Z,1.03
2023-01-30T11:22:02.888Z,1.11
2023-01-30T11:24:49.602Z,1.21
2023-01-30T11:27:37.456Z,1.23
2023-01-30T11:30:30.301Z,1.29
2023-01-30T11:33:18.281Z,1.39
2023-01-30T11:36:07.388Z,1.54
2023-01-30T11:39:05.143Z,1.66
2023-01-30T11:42:04.910Z,1.71
2023-01-30T11:56:54.714Z,2.09
2023-01-30T12:00:04.909Z,2.14
2023-01-30T12:03:30.503Z,2.08
2023-01-30T12:06:23.403Z,1.97
2023-01-30T12:09:32.346Z,2.00
2023-01-30T12:12:58.277Z,2.00
2023-01-30T12:15:48.396Z,1.98
2023-01-30T12:20:28.553Z,1.97
2023-01-30T12:25:18.530Z,1.89
2023-01-30T12:33:59.220Z,1.74
2023-01-30T12:38:00.741Z,1.71
2023-01-30T12:42:39.988Z,1.76
2023-01-30T12:46:11.070Z,1.79
2023-01-30T12:49:25.122Z,1.85
2023-01-30T12:52:45.817Z,1.96
2023-01-30T12:55:38.796Z,1.98
2023-01-30T12:58:46.927Z,2.04
2023-01-30T13:02:58.232Z,1.97
2023-01-30T13:07:30.258Z,1.97
2023-01-30T13:10:54.351Z,1.98
2023-01-30T13:15:11.312Z,1.94
2023-01-30T13:19:21.124Z,2.03
2023-01-30T13:22:54.486Z,2.01
2023-01-30T13:26:04.002Z,1.98
2023-01-30T13:29:05.887Z,2.01
2023-01-30T13:31:57.258Z,2.05
2023-01-30T13:34:48.024Z,2.10
2023-01-30T13:37:38.977Z,2.08
2023-01-30T13:40:29.653Z,2.12
2023-01-30T13:43:25.763Z,2.12
2023-01-30T13:46:54.345Z,2.19
2023-01-30T13:51:01.958Z,2.09
2023-01-30T13:53:53.852Z,2.06
2023-01-30T13:56:57.837Z,2.12
2023-01-30T14:00:31.538Z,2.18
2023-01-30T14:03:30.343Z,2.21
2023-01-30T14:06:33.708Z,2.22
2023-01-30T14:09:29.379Z,2.25
2023-01-30T14:12:23.658Z,2.30
2023-01-30T14:15:16.637Z,2.34
2023-01-30T14:18:23.422Z,2.34
2023-01-30T14:21:24.557Z,2.38
2023-01-30T14:26:53.369Z,2.46
2023-01-30T14:30:53.497Z,2.39
2023-01-30T14:33:51.243Z,2.36
2023-01-30T14:36:47.612Z,2.42
2023-01-30T14:39:41.088Z,2.45
2023-01-30T14:45:17.899Z,2.57
2023-01-30T14:49:26.673Z,2.50
2023-01-30T14:53:25.420Z,2.52
2023-01-30T14:57:32.954Z,2.48
2023-01-30T15:02:13.023Z,2.54
2023-01-30T15:06:11.019Z,2.53
2023-01-30T15:10:24.551Z,2.48
2023-01-30T15:14:29.981Z,2.51
2023-01-30T15:17:33.185Z,2.44
2023-01-30T15:21:19.555Z,2.50
2023-01-30T15:24:40.581Z,2.51
2023-01-30T15:29:05.727Z,2.58
2023-01-30T15:33:30.433Z,2.61
2023-01-30T15:47:21.838Z,2.84
2023-01-30T15:50:36.504Z,2.80
2023-01-30T15:53:57.920Z,2.80
2023-01-30T16:08:29.139Z,3.01
2023-01-30T16:27:18.553Z,3.10
2023-01-30T16:40:49.808Z,3.32
2023-01-30T16:43:45.737Z,3.31
2023-01-30T16:48:17.118Z,3.15
2023-01-30T16:53:09.291Z,3.10
2023-01-30T16:57:04.918Z,3.11
2023-01-30T17:01:40.107Z,3.17
2023-01-30T17:04:43.865Z,3.14
2023-01-30T17:18:51.747Z,3.47
2023-01-30T17:21:51.668Z,3.39
2023-01-30T17:26:44.783Z,3.32
2023-01-30T17:30:42.239Z,3.20
2023-01-30T17:34:52.709Z,3.22
2023-01-30T17:38:24.387Z,3.15
2023-01-30T17:52:43.877Z,3.57
2023-01-30T18:47:46.501Z,3.98
2023-01-30T18:50:49.053Z,3.80
2023-01-30T18:54:23.301Z,3.80
2023-01-30T18:59:15.971Z,3.81
2023-01-30T19:13:04.681Z,3.93
2023-01-30T19:16:04.750Z,3.83
2023-01-30T19:19:39.635Z,3.76
2023-01-30T19:24:59.124Z,3.70
2023-01-30T19:38:53.178Z,3.97
2023-01-30T19:41:55.493Z,3.81
2023-01-30T19:45:35.116Z,3.72
2023-01-30T19:49:07.621Z,3.62
2023-01-30T20:03:59.012Z,3.84
2023-01-30T20:07:00.157Z,3.79
2023-01-30T20:35:10.651Z,3.80
2023-01-30T21:03:12.444Z,3.79
2023-01-30T22:13:41.705Z,3.53
2023-01-30T22:16:58.162Z,3.40
2023-01-30T22:31:16.824Z,3.42
2023-01-30T22:34:11.538Z,3.44
2023-01-30T22:38:06.838Z,3.36
